sensor_id;sensor_type;location;lat;lon;timestamp;temperature;humidity
72883;DHT22;61017;37.812;-122.286;2023-08-06T00:00:47;18.90;97.40
72883;DHT22;61017;37.812;-122.286;2023-08-06T00:02:18;18.90;97.50
72883;DHT22;61017;37.812;-122.286;2023-08-06T00:03:50;18.90;97.60
72883;DHT22;61017;37.812;-122.286;2023-08-06T00:05:24;18.90;97.50
72883;DHT22;61017;37.812;-122.286;2023-08-06T00:06:55;18.90;97.50
72883;DHT22;61017;37.812;-122.286;2023-08-06T00:08:27;18.90;97.60
72883;DHT22;61017;37.812;-122.286;2023-08-06T00:09:59;18.90;97.60
72883;DHT22;61017;37.812;-122.286;2023-08-06T00:11:30;18.90;97.50
72883;DHT22;61017;37.812;-122.286;2023-08-06T00:13:02;18.90;97.70
72883;DHT22;61017;37.812;-122.286;2023-08-06T00:14:34;18.90;97.60
72883;DHT22;61017;37.812;-122.286;2023-08-06T00:16:12;18.90;98.00
72883;DHT22;61017;37.812;-122.286;2023-08-06T00:17:43;18.90;97.70
72883;DHT22;61017;37.812;-122.286;2023-08-06T00:19:15;18.90;97.70
72883;DHT22;61017;37.812;-122.286;2023-08-06T00:20:47;18.90;97.70
72883;DHT22;61017;37.812;-122.286;2023-08-06T00:22:18;18.90;97.60
72883;DHT22;61017;37.812;-122.286;2023-08-06T00:23:50;18.90;97.70
72883;DHT22;61017;37.812;-122.286;2023-08-06T00:25:22;18.90;97.80
72883;DHT22;61017;37.812;-122.286;2023-08-06T00:26:53;18.90;97.60
72883;DHT22;61017;37.812;-122.286;2023-08-06T00:28:25;18.90;97.80
72883;DHT22;61017;37.812;-122.286;2023-08-06T00:29:56;18.90;97.70
72883;DHT22;61017;37.812;-122.286;2023-08-06T00:31:28;18.90;98.10
72883;DHT22;61017;37.812;-122.286;2023-08-06T00:33:00;18.90;97.70
72883;DHT22;61017;37.812;-122.286;2023-08-06T00:34:34;18.90;97.80
72883;DHT22;61017;37.812;-122.286;2023-08-06T00:36:05;18.90;97.90
72883;DHT22;61017;37.812;-122.286;2023-08-06T00:37:37;18.90;97.80
72883;DHT22;61017;37.812;-122.286;2023-08-06T00:39:08;18.90;97.80
72883;DHT22;61017;37.812;-122.286;2023-08-06T00:40:40;18.90;97.90
72883;DHT22;61017;37.812;-122.286;2023-08-06T00:42:13;18.90;97.90
72883;DHT22;61017;37.812;-122.286;2023-08-06T00:43:45;18.90;97.90
72883;DHT22;61017;37.812;-122.286;2023-08-06T00:45:16;18.90;97.90
72883;DHT22;61017;37.812;-122.286;2023-08-06T00:46:48;18.90;97.90
72883;DHT22;61017;37.812;-122.286;2023-08-06T00:48:20;18.90;97.90
72883;DHT22;61017;37.812;-122.286;2023-08-06T00:49:58;18.90;97.90
72883;DHT22;61017;37.812;-122.286;2023-08-06T00:51:29;18.90;97.90
72883;DHT22;61017;37.812;-122.286;2023-08-06T00:53:01;18.90;97.90
72883;DHT22;61017;37.812;-122.286;2023-08-06T00:54:33;18.90;97.80
72883;DHT22;61017;37.812;-122.286;2023-08-06T00:56:06;18.90;97.90
72883;DHT22;61017;37.812;-122.286;2023-08-06T00:57:38;18.90;97.90
72883;DHT22;61017;37.812;-122.286;2023-08-06T00:59:11;18.90;98.10
72883;DHT22;61017;37.812;-122.286;2023-08-06T01:00:42;18.90;97.90
72883;DHT22;61017;37.812;-122.286;2023-08-06T01:02:14;18.90;97.80
72883;DHT22;61017;37.812;-122.286;2023-08-06T01:03:46;18.90;97.90
72883;DHT22;61017;37.812;-122.286;2023-08-06T01:05:18;18.90;97.90
72883;DHT22;61017;37.812;-122.286;2023-08-06T01:10:36;18.90;97.80
72883;DHT22;61017;37.812;-122.286;2023-08-06T01:13:05;19.00;98.00
72883;DHT22;61017;37.812;-122.286;2023-08-06T01:14:25;18.90;97.90
72883;DHT22;61017;37.812;-122.286;2023-08-06T01:16:00;18.90;97.90
72883;DHT22;61017;37.812;-122.286;2023-08-06T01:17:35;18.90;98.00
72883;DHT22;61017;37.812;-122.286;2023-08-06T01:19:19;18.90;97.90
72883;DHT22;61017;37.812;-122.286;2023-08-06T01:20:51;18.90;98.00
72883;DHT22;61017;37.812;-122.286;2023-08-06T01:22:22;18.90;98.00
72883;DHT22;61017;37.812;-122.286;2023-08-06T01:23:54;18.90;97.90
72883;DHT22;61017;37.812;-122.286;2023-08-06T01:27:30;19.00;97.90
72883;DHT22;61017;37.812;-122.286;2023-08-06T01:29:17;18.90;97.90
72883;DHT22;61017;37.812;-122.286;2023-08-06T01:30:50;18.90;97.90
72883;DHT22;61017;37.812;-122.286;2023-08-06T01:32:25;18.90;98.00
72883;DHT22;61017;37.812;-122.286;2023-08-06T01:33:59;18.90;97.90
72883;DHT22;61017;37.812;-122.286;2023-08-06T01:35:35;18.90;97.90
72883;DHT22;61017;37.812;-122.286;2023-08-06T01:37:09;18.90;97.80
72883;DHT22;61017;37.812;-122.286;2023-08-06T01:38:41;18.90;97.90
72883;DHT22;61017;37.812;-122.286;2023-08-06T01:40:13;19.00;97.90
72883;DHT22;61017;37.812;-122.286;2023-08-06T01:41:44;18.90;97.90
72883;DHT22;61017;37.812;-122.286;2023-08-06T01:43:16;18.90;97.90
72883;DHT22;61017;37.812;-122.286;2023-08-06T01:44:48;19.00;97.90
72883;DHT22;61017;37.812;-122.286;2023-08-06T01:46:19;19.00;97.90
72883;DHT22;61017;37.812;-122.286;2023-08-06T01:47:51;18.90;97.80
72883;DHT22;61017;37.812;-122.286;2023-08-06T01:49:22;19.00;97.90
72883;DHT22;61017;37.812;-122.286;2023-08-06T01:50:54;18.90;97.80
72883;DHT22;61017;37.812;-122.286;2023-08-06T01:52:27;19.00;97.90
72883;DHT22;61017;37.812;-122.286;2023-08-06T01:53:59;19.00;97.90
72883;DHT22;61017;37.812;-122.286;2023-08-06T01:55:34;18.90;97.70
72883;DHT22;61017;37.812;-122.286;2023-08-06T01:57:26;19.00;97.80
72883;DHT22;61017;37.812;-122.286;2023-08-06T01:58:59;19.00;97.90
72883;DHT22;61017;37.812;-122.286;2023-08-06T02:00:57;19.00;97.90
72883;DHT22;61017;37.812;-122.286;2023-08-06T02:02:31;19.00;97.90
72883;DHT22;61017;37.812;-122.286;2023-08-06T02:04:05;19.00;97.80
72883;DHT22;61017;37.812;-122.286;2023-08-06T02:05:37;19.00;97.90
72883;DHT22;61017;37.812;-122.286;2023-08-06T02:07:08;19.00;97.80
72883;DHT22;61017;37.812;-122.286;2023-08-06T02:08:50;19.00;97.80
72883;DHT22;61017;37.812;-122.286;2023-08-06T02:10:27;19.00;97.90
72883;DHT22;61017;37.812;-122.286;2023-08-06T02:12:37;19.00;97.90
72883;DHT22;61017;37.812;-122.286;2023-08-06T02:14:11;19.00;97.90
72883;DHT22;61017;37.812;-122.286;2023-08-06T02:15:44;19.00;97.90
72883;DHT22;61017;37.812;-122.286;2023-08-06T02:17:15;19.00;97.90
72883;DHT22;61017;37.812;-122.286;2023-08-06T02:18:47;19.00;97.80
72883;DHT22;61017;37.812;-122.286;2023-08-06T02:20:24;19.00;97.90
72883;DHT22;61017;37.812;-122.286;2023-08-06T02:21:58;19.00;97.90
72883;DHT22;61017;37.812;-122.286;2023-08-06T02:23:39;19.00;97.80
72883;DHT22;61017;37.812;-122.286;2023-08-06T02:25:10;19.00;97.90
72883;DHT22;61017;37.812;-122.286;2023-08-06T02:26:42;19.00;97.90
72883;DHT22;61017;37.812;-122.286;2023-08-06T02:28:16;19.00;97.90
72883;DHT22;61017;37.812;-122.286;2023-08-06T02:29:47;19.00;97.90
72883;DHT22;61017;37.812;-122.286;2023-08-06T02:31:19;19.00;97.90
72883;DHT22;61017;37.812;-122.286;2023-08-06T02:32:53;19.00;97.80
72883;DHT22;61017;37.812;-122.286;2023-08-06T02:34:25;19.00;97.90
72883;DHT22;61017;37.812;-122.286;2023-08-06T02:36:03;19.00;97.90
72883;DHT22;61017;37.812;-122.286;2023-08-06T02:37:35;19.00;97.90
72883;DHT22;61017;37.812;-122.286;2023-08-06T02:39:06;19.00;97.90
72883;DHT22;61017;37.812;-122.286;2023-08-06T02:40:46;19.00;97.90
72883;DHT22;61017;37.812;-122.286;2023-08-06T02:42:18;19.00;98.00
72883;DHT22;61017;37.812;-122.286;2023-08-06T02:43:50;19.00;97.80
72883;DHT22;61017;37.812;-122.286;2023-08-06T02:45:21;19.00;97.90
72883;DHT22;61017;37.812;-122.286;2023-08-06T02:46:53;19.00;97.90
72883;DHT22;61017;37.812;-122.286;2023-08-06T02:48:24;19.00;97.90
72883;DHT22;61017;37.812;-122.286;2023-08-06T02:50:06;19.00;97.90
72883;DHT22;61017;37.812;-122.286;2023-08-06T02:51:38;19.00;98.00
72883;DHT22;61017;37.812;-122.286;2023-08-06T02:53:10;19.00;97.90
72883;DHT22;61017;37.812;-122.286;2023-08-06T02:54:44;19.00;97.90
72883;DHT22;61017;37.812;-122.286;2023-08-06T02:56:45;19.00;98.00
72883;DHT22;61017;37.812;-122.286;2023-08-06T02:58:42;19.00;98.00
72883;DHT22;61017;37.812;-122.286;2023-08-06T03:00:16;19.00;97.90
72883;DHT22;61017;37.812;-122.286;2023-08-06T03:01:48;19.00;97.90
72883;DHT22;61017;37.812;-122.286;2023-08-06T03:03:20;19.00;97.90
72883;DHT22;61017;37.812;-122.286;2023-08-06T03:04:51;19.00;97.90
72883;DHT22;61017;37.812;-122.286;2023-08-06T03:06:25;19.00;97.90
72883;DHT22;61017;37.812;-122.286;2023-08-06T03:07:59;19.00;97.90
72883;DHT22;61017;37.812;-122.286;2023-08-06T03:09:34;19.00;97.90
72883;DHT22;61017;37.812;-122.286;2023-08-06T03:11:05;19.00;97.90
72883;DHT22;61017;37.812;-122.286;2023-08-06T03:12:37;19.00;97.90
72883;DHT22;61017;37.812;-122.286;2023-08-06T03:14:09;19.00;97.90
72883;DHT22;61017;37.812;-122.286;2023-08-06T03:15:41;19.00;97.90
72883;DHT22;61017;37.812;-122.286;2023-08-06T03:17:15;19.00;98.00
72883;DHT22;61017;37.812;-122.286;2023-08-06T03:18:49;19.00;97.90
72883;DHT22;61017;37.812;-122.286;2023-08-06T03:20:21;19.00;97.90
72883;DHT22;61017;37.812;-122.286;2023-08-06T03:21:55;19.00;97.90
72883;DHT22;61017;37.812;-122.286;2023-08-06T03:23:27;19.00;98.00
72883;DHT22;61017;37.812;-122.286;2023-08-06T03:25:02;19.00;97.90
72883;DHT22;61017;37.812;-122.286;2023-08-06T03:26:34;19.00;97.90
72883;DHT22;61017;37.812;-122.286;2023-08-06T03:28:05;19.00;98.00
72883;DHT22;61017;37.812;-122.286;2023-08-06T03:29:37;19.00;97.90
72883;DHT22;61017;37.812;-122.286;2023-08-06T03:31:09;19.00;97.90
72883;DHT22;61017;37.812;-122.286;2023-08-06T03:32:40;19.00;97.90
72883;DHT22;61017;37.812;-122.286;2023-08-06T03:34:12;19.00;97.90
72883;DHT22;61017;37.812;-122.286;2023-08-06T03:35:44;19.00;97.90
72883;DHT22;61017;37.812;-122.286;2023-08-06T03:37:15;19.00;97.90
72883;DHT22;61017;37.812;-122.286;2023-08-06T03:38:47;19.00;97.90
72883;DHT22;61017;37.812;-122.286;2023-08-06T03:40:19;19.00;97.90
72883;DHT22;61017;37.812;-122.286;2023-08-06T03:41:50;19.00;97.90
72883;DHT22;61017;37.812;-122.286;2023-08-06T03:43:25;19.00;97.90
72883;DHT22;61017;37.812;-122.286;2023-08-06T03:44:56;19.00;97.90
72883;DHT22;61017;37.812;-122.286;2023-08-06T03:46:28;19.00;97.90
72883;DHT22;61017;37.812;-122.286;2023-08-06T03:47:59;19.00;97.90
72883;DHT22;61017;37.812;-122.286;2023-08-06T03:49:34;19.00;97.90
72883;DHT22;61017;37.812;-122.286;2023-08-06T03:51:08;19.00;97.90
72883;DHT22;61017;37.812;-122.286;2023-08-06T03:52:40;19.00;97.90
72883;DHT22;61017;37.812;-122.286;2023-08-06T03:54:12;19.00;97.90
72883;DHT22;61017;37.812;-122.286;2023-08-06T03:55:43;19.00;97.90
72883;DHT22;61017;37.812;-122.286;2023-08-06T03:57:15;19.00;97.90
72883;DHT22;61017;37.812;-122.286;2023-08-06T03:58:46;19.00;98.00
72883;DHT22;61017;37.812;-122.286;2023-08-06T04:00:18;19.00;97.90
72883;DHT22;61017;37.812;-122.286;2023-08-06T04:01:53;19.00;97.90
72883;DHT22;61017;37.812;-122.286;2023-08-06T04:03:24;19.00;97.90
72883;DHT22;61017;37.812;-122.286;2023-08-06T04:04:56;19.00;97.90
72883;DHT22;61017;37.812;-122.286;2023-08-06T04:06:33;19.00;97.90
72883;DHT22;61017;37.812;-122.286;2023-08-06T04:08:21;19.00;97.90
72883;DHT22;61017;37.812;-122.286;2023-08-06T04:10:13;19.00;98.20
72883;DHT22;61017;37.812;-122.286;2023-08-06T04:11:44;19.00;97.90
72883;DHT22;61017;37.812;-122.286;2023-08-06T04:13:19;19.00;97.90
72883;DHT22;61017;37.812;-122.286;2023-08-06T04:15:03;19.00;97.90
72883;DHT22;61017;37.812;-122.286;2023-08-06T04:16:34;19.00;97.90
72883;DHT22;61017;37.812;-122.286;2023-08-06T04:18:06;19.00;97.80
72883;DHT22;61017;37.812;-122.286;2023-08-06T04:19:38;19.00;97.80
72883;DHT22;61017;37.812;-122.286;2023-08-06T04:21:12;19.00;97.90
72883;DHT22;61017;37.812;-122.286;2023-08-06T04:22:44;19.00;97.80
72883;DHT22;61017;37.812;-122.286;2023-08-06T04:24:18;19.00;97.80
72883;DHT22;61017;37.812;-122.286;2023-08-06T04:25:59;19.00;97.80
72883;DHT22;61017;37.812;-122.286;2023-08-06T04:27:30;19.00;97.80
72883;DHT22;61017;37.812;-122.286;2023-08-06T04:29:02;19.00;97.70
72883;DHT22;61017;37.812;-122.286;2023-08-06T04:30:37;19.00;97.80
72883;DHT22;61017;37.812;-122.286;2023-08-06T04:32:10;19.00;97.80
72883;DHT22;61017;37.812;-122.286;2023-08-06T04:33:41;19.00;97.80
72883;DHT22;61017;37.812;-122.286;2023-08-06T04:35:15;19.00;97.70
72883;DHT22;61017;37.812;-122.286;2023-08-06T04:36:49;19.00;97.70
72883;DHT22;61017;37.812;-122.286;2023-08-06T04:38:22;19.00;97.80
72883;DHT22;61017;37.812;-122.286;2023-08-06T04:39:54;19.00;97.70
72883;DHT22;61017;37.812;-122.286;2023-08-06T04:41:26;19.00;97.80
72883;DHT22;61017;37.812;-122.286;2023-08-06T04:43:00;19.00;97.70
72883;DHT22;61017;37.812;-122.286;2023-08-06T04:44:31;19.00;97.80
72883;DHT22;61017;37.812;-122.286;2023-08-06T04:46:03;19.00;97.70
72883;DHT22;61017;37.812;-122.286;2023-08-06T04:47:38;19.00;97.70
72883;DHT22;61017;37.812;-122.286;2023-08-06T04:49:09;19.00;97.80
72883;DHT22;61017;37.812;-122.286;2023-08-06T04:50:50;19.00;97.70
72883;DHT22;61017;37.812;-122.286;2023-08-06T04:52:22;19.00;97.80
72883;DHT22;61017;37.812;-122.286;2023-08-06T04:53:54;19.00;97.70
72883;DHT22;61017;37.812;-122.286;2023-08-06T04:55:25;19.00;97.70
72883;DHT22;61017;37.812;-122.286;2023-08-06T04:57:03;19.00;97.70
72883;DHT22;61017;37.812;-122.286;2023-08-06T04:58:37;19.00;97.70
72883;DHT22;61017;37.812;-122.286;2023-08-06T05:00:09;19.00;97.70
72883;DHT22;61017;37.812;-122.286;2023-08-06T05:01:41;19.00;97.70
72883;DHT22;61017;37.812;-122.286;2023-08-06T05:03:18;19.00;97.60
72883;DHT22;61017;37.812;-122.286;2023-08-06T05:04:52;19.00;97.60
72883;DHT22;61017;37.812;-122.286;2023-08-06T05:06:27;19.00;97.60
72883;DHT22;61017;37.812;-122.286;2023-08-06T05:08:01;19.00;97.60
72883;DHT22;61017;37.812;-122.286;2023-08-06T05:09:36;19.00;97.60
72883;DHT22;61017;37.812;-122.286;2023-08-06T05:11:09;19.00;97.60
72883;DHT22;61017;37.812;-122.286;2023-08-06T05:12:41;19.00;97.50
72883;DHT22;61017;37.812;-122.286;2023-08-06T05:14:21;19.00;97.50
72883;DHT22;61017;37.812;-122.286;2023-08-06T05:15:56;19.00;97.60
72883;DHT22;61017;37.812;-122.286;2023-08-06T05:17:31;19.00;97.60
72883;DHT22;61017;37.812;-122.286;2023-08-06T05:19:02;19.00;97.50
72883;DHT22;61017;37.812;-122.286;2023-08-06T05:20:37;19.00;97.30
72883;DHT22;61017;37.812;-122.286;2023-08-06T05:22:09;19.00;97.30
72883;DHT22;61017;37.812;-122.286;2023-08-06T05:23:41;19.00;97.30
72883;DHT22;61017;37.812;-122.286;2023-08-06T05:25:13;19.00;97.30
72883;DHT22;61017;37.812;-122.286;2023-08-06T05:26:47;19.00;97.30
72883;DHT22;61017;37.812;-122.286;2023-08-06T05:28:19;19.00;97.20
72883;DHT22;61017;37.812;-122.286;2023-08-06T05:29:55;19.00;97.20
72883;DHT22;61017;37.812;-122.286;2023-08-06T05:31:27;19.00;97.20
72883;DHT22;61017;37.812;-122.286;2023-08-06T05:32:58;19.00;97.00
72883;DHT22;61017;37.812;-122.286;2023-08-06T05:34:30;19.00;97.10
72883;DHT22;61017;37.812;-122.286;2023-08-06T05:36:01;19.00;96.90
72883;DHT22;61017;37.812;-122.286;2023-08-06T05:37:33;19.00;97.00
72883;DHT22;61017;37.812;-122.286;2023-08-06T05:39:05;19.00;97.00
72883;DHT22;61017;37.812;-122.286;2023-08-06T05:40:36;19.00;96.90
72883;DHT22;61017;37.812;-122.286;2023-08-06T05:42:08;19.00;96.90
72883;DHT22;61017;37.812;-122.286;2023-08-06T05:43:39;19.00;96.90
72883;DHT22;61017;37.812;-122.286;2023-08-06T05:45:11;19.00;96.80
72883;DHT22;61017;37.812;-122.286;2023-08-06T05:46:43;19.00;96.80
72883;DHT22;61017;37.812;-122.286;2023-08-06T05:48:38;19.00;96.70
72883;DHT22;61017;37.812;-122.286;2023-08-06T05:50:10;19.00;96.80
72883;DHT22;61017;37.812;-122.286;2023-08-06T05:51:44;19.00;96.90
72883;DHT22;61017;37.812;-122.286;2023-08-06T05:53:18;19.00;96.90
72883;DHT22;61017;37.812;-122.286;2023-08-06T05:54:55;19.00;96.90
72883;DHT22;61017;37.812;-122.286;2023-08-06T05:56:30;19.00;96.90
72883;DHT22;61017;37.812;-122.286;2023-08-06T05:58:04;19.00;96.80
72883;DHT22;61017;37.812;-122.286;2023-08-06T05:59:36;19.00;96.80
72883;DHT22;61017;37.812;-122.286;2023-08-06T06:01:07;19.00;96.80
72883;DHT22;61017;37.812;-122.286;2023-08-06T06:02:57;19.00;96.70
72883;DHT22;61017;37.812;-122.286;2023-08-06T06:04:28;19.00;96.80
72883;DHT22;61017;37.812;-122.286;2023-08-06T06:06:09;19.00;96.90
72883;DHT22;61017;37.812;-122.286;2023-08-06T06:07:41;18.90;96.70
72883;DHT22;61017;37.812;-122.286;2023-08-06T06:09:12;19.00;96.90
72883;DHT22;61017;37.812;-122.286;2023-08-06T06:10:44;19.00;96.70
72883;DHT22;61017;37.812;-122.286;2023-08-06T06:12:15;19.00;96.80
72883;DHT22;61017;37.812;-122.286;2023-08-06T06:13:50;19.00;96.80
72883;DHT22;61017;37.812;-122.286;2023-08-06T06:15:22;19.00;96.80
72883;DHT22;61017;37.812;-122.286;2023-08-06T06:16:54;19.00;96.90
72883;DHT22;61017;37.812;-122.286;2023-08-06T06:18:26;19.00;96.80
72883;DHT22;61017;37.812;-122.286;2023-08-06T06:19:57;19.00;96.90
72883;DHT22;61017;37.812;-122.286;2023-08-06T06:21:29;19.00;97.00
72883;DHT22;61017;37.812;-122.286;2023-08-06T06:23:00;19.00;97.00
72883;DHT22;61017;37.812;-122.286;2023-08-06T06:24:32;19.00;97.00
72883;DHT22;61017;37.812;-122.286;2023-08-06T06:26:04;19.00;96.90
72883;DHT22;61017;37.812;-122.286;2023-08-06T06:27:35;19.00;97.00
72883;DHT22;61017;37.812;-122.286;2023-08-06T06:29:07;19.00;97.00
72883;DHT22;61017;37.812;-122.286;2023-08-06T06:30:39;18.90;97.00
72883;DHT22;61017;37.812;-122.286;2023-08-06T06:32:10;19.00;97.00
72883;DHT22;61017;37.812;-122.286;2023-08-06T06:33:42;19.00;97.10
72883;DHT22;61017;37.812;-122.286;2023-08-06T06:35:13;19.00;97.00
72883;DHT22;61017;37.812;-122.286;2023-08-06T06:36:51;19.00;97.00
72883;DHT22;61017;37.812;-122.286;2023-08-06T06:38:22;19.00;97.10
72883;DHT22;61017;37.812;-122.286;2023-08-06T06:39:57;19.00;97.10
72883;DHT22;61017;37.812;-122.286;2023-08-06T06:41:28;19.00;97.00
72883;DHT22;61017;37.812;-122.286;2023-08-06T06:43:00;19.00;97.00
72883;DHT22;61017;37.812;-122.286;2023-08-06T06:44:32;19.00;96.90
72883;DHT22;61017;37.812;-122.286;2023-08-06T06:46:03;19.00;96.90
72883;DHT22;61017;37.812;-122.286;2023-08-06T06:47:35;19.00;97.00
72883;DHT22;61017;37.812;-122.286;2023-08-06T06:49:09;19.00;96.80
72883;DHT22;61017;37.812;-122.286;2023-08-06T06:50:40;19.00;96.90
72883;DHT22;61017;37.812;-122.286;2023-08-06T06:52:12;19.00;97.00
72883;DHT22;61017;37.812;-122.286;2023-08-06T06:53:43;19.00;97.00
72883;DHT22;61017;37.812;-122.286;2023-08-06T06:55:15;18.90;97.00
72883;DHT22;61017;37.812;-122.286;2023-08-06T06:56:47;19.00;97.10
72883;DHT22;61017;37.812;-122.286;2023-08-06T06:58:19;19.00;97.10
72883;DHT22;61017;37.812;-122.286;2023-08-06T06:59:50;19.00;97.20
72883;DHT22;61017;37.812;-122.286;2023-08-06T07:01:22;19.00;97.00
72883;DHT22;61017;37.812;-122.286;2023-08-06T07:02:54;19.00;97.10
72883;DHT22;61017;37.812;-122.286;2023-08-06T07:04:25;19.00;97.10
72883;DHT22;61017;37.812;-122.286;2023-08-06T07:06:00;19.00;97.10
72883;DHT22;61017;37.812;-122.286;2023-08-06T07:07:52;19.00;97.10
72883;DHT22;61017;37.812;-122.286;2023-08-06T07:09:25;19.00;97.00
72883;DHT22;61017;37.812;-122.286;2023-08-06T07:11:06;19.00;96.90
72883;DHT22;61017;37.812;-122.286;2023-08-06T07:12:37;18.90;96.90
72883;DHT22;61017;37.812;-122.286;2023-08-06T07:14:09;19.00;96.90
72883;DHT22;61017;37.812;-122.286;2023-08-06T07:15:43;19.00;96.90
72883;DHT22;61017;37.812;-122.286;2023-08-06T07:17:15;19.00;96.90
72883;DHT22;61017;37.812;-122.286;2023-08-06T07:18:47;19.00;96.90
72883;DHT22;61017;37.812;-122.286;2023-08-06T07:20:19;19.00;96.80
72883;DHT22;61017;37.812;-122.286;2023-08-06T07:21:51;19.00;96.80
72883;DHT22;61017;37.812;-122.286;2023-08-06T07:23:24;19.00;96.80
72883;DHT22;61017;37.812;-122.286;2023-08-06T07:24:56;19.00;96.80
72883;DHT22;61017;37.812;-122.286;2023-08-06T07:26:30;19.00;96.90
72883;DHT22;61017;37.812;-122.286;2023-08-06T07:28:02;19.00;97.00
72883;DHT22;61017;37.812;-122.286;2023-08-06T07:29:36;19.00;96.90
72883;DHT22;61017;37.812;-122.286;2023-08-06T07:31:08;19.00;96.80
72883;DHT22;61017;37.812;-122.286;2023-08-06T07:32:42;19.00;96.70
72883;DHT22;61017;37.812;-122.286;2023-08-06T07:34:14;19.00;96.80
72883;DHT22;61017;37.812;-122.286;2023-08-06T07:35:45;19.00;96.90
72883;DHT22;61017;37.812;-122.286;2023-08-06T07:37:17;19.00;96.90
72883;DHT22;61017;37.812;-122.286;2023-08-06T07:38:49;19.00;96.90
72883;DHT22;61017;37.812;-122.286;2023-08-06T07:40:20;19.00;96.90
72883;DHT22;61017;37.812;-122.286;2023-08-06T07:41:52;18.90;96.80
72883;DHT22;61017;37.812;-122.286;2023-08-06T07:43:26;19.00;97.20
72883;DHT22;61017;37.812;-122.286;2023-08-06T07:44:59;19.00;96.80
72883;DHT22;61017;37.812;-122.286;2023-08-06T07:46:33;19.00;96.80
72883;DHT22;61017;37.812;-122.286;2023-08-06T07:48:05;18.90;96.70
72883;DHT22;61017;37.812;-122.286;2023-08-06T07:49:37;18.90;96.60
72883;DHT22;61017;37.812;-122.286;2023-08-06T07:51:08;19.00;96.60
72883;DHT22;61017;37.812;-122.286;2023-08-06T07:52:40;19.00;96.70
72883;DHT22;61017;37.812;-122.286;2023-08-06T07:54:11;19.00;96.70
72883;DHT22;61017;37.812;-122.286;2023-08-06T07:55:43;19.00;96.60
72883;DHT22;61017;37.812;-122.286;2023-08-06T07:57:20;19.00;96.60
72883;DHT22;61017;37.812;-122.286;2023-08-06T07:59:04;19.00;96.60
72883;DHT22;61017;37.812;-122.286;2023-08-06T08:00:36;19.00;96.70
72883;DHT22;61017;37.812;-122.286;2023-08-06T08:02:08;19.00;96.60
72883;DHT22;61017;37.812;-122.286;2023-08-06T08:03:39;18.90;96.60
72883;DHT22;61017;37.812;-122.286;2023-08-06T08:05:13;19.00;96.60
72883;DHT22;61017;37.812;-122.286;2023-08-06T08:06:45;18.90;96.60
72883;DHT22;61017;37.812;-122.286;2023-08-06T08:08:16;18.90;96.60
72883;DHT22;61017;37.812;-122.286;2023-08-06T08:09:48;19.00;96.50
72883;DHT22;61017;37.812;-122.286;2023-08-06T08:11:21;18.90;96.40
72883;DHT22;61017;37.812;-122.286;2023-08-06T08:12:52;19.00;96.50
72883;DHT22;61017;37.812;-122.286;2023-08-06T08:14:24;18.90;96.40
72883;DHT22;61017;37.812;-122.286;2023-08-06T08:15:59;18.90;96.30
72883;DHT22;61017;37.812;-122.286;2023-08-06T08:17:30;18.90;96.30
72883;DHT22;61017;37.812;-122.286;2023-08-06T08:19:02;19.00;96.70
72883;DHT22;61017;37.812;-122.286;2023-08-06T08:20:34;18.90;96.20
72883;DHT22;61017;37.812;-122.286;2023-08-06T08:22:05;18.90;96.20
72883;DHT22;61017;37.812;-122.286;2023-08-06T08:23:37;18.90;96.20
72883;DHT22;61017;37.812;-122.286;2023-08-06T08:25:09;18.90;96.20
72883;DHT22;61017;37.812;-122.286;2023-08-06T08:26:43;18.90;96.20
72883;DHT22;61017;37.812;-122.286;2023-08-06T08:28:15;18.90;96.20
72883;DHT22;61017;37.812;-122.286;2023-08-06T08:29:46;18.90;96.30
72883;DHT22;61017;37.812;-122.286;2023-08-06T08:31:18;18.90;96.20
72883;DHT22;61017;37.812;-122.286;2023-08-06T08:32:49;18.90;96.20
72883;DHT22;61017;37.812;-122.286;2023-08-06T08:34:22;18.90;96.10
72883;DHT22;61017;37.812;-122.286;2023-08-06T08:35:54;18.90;96.10
72883;DHT22;61017;37.812;-122.286;2023-08-06T08:37:25;18.90;96.10
72883;DHT22;61017;37.812;-122.286;2023-08-06T08:38:57;18.90;96.10
72883;DHT22;61017;37.812;-122.286;2023-08-06T08:40:38;18.90;96.00
72883;DHT22;61017;37.812;-122.286;2023-08-06T08:42:19;18.90;96.00
72883;DHT22;61017;37.812;-122.286;2023-08-06T08:43:53;18.90;96.00
72883;DHT22;61017;37.812;-122.286;2023-08-06T08:45:28;18.90;96.10
72883;DHT22;61017;37.812;-122.286;2023-08-06T08:47:00;18.90;96.10
72883;DHT22;61017;37.812;-122.286;2023-08-06T08:48:32;18.90;96.20
72883;DHT22;61017;37.812;-122.286;2023-08-06T08:50:05;18.90;96.20
72883;DHT22;61017;37.812;-122.286;2023-08-06T08:51:41;18.90;96.20
72883;DHT22;61017;37.812;-122.286;2023-08-06T08:53:16;18.90;96.10
72883;DHT22;61017;37.812;-122.286;2023-08-06T08:54:48;18.90;96.20
72883;DHT22;61017;37.812;-122.286;2023-08-06T08:56:21;18.90;96.10
72883;DHT22;61017;37.812;-122.286;2023-08-06T08:57:52;18.90;96.10
72883;DHT22;61017;37.812;-122.286;2023-08-06T08:59:24;18.90;96.20
72883;DHT22;61017;37.812;-122.286;2023-08-06T09:00:55;18.90;96.20
72883;DHT22;61017;37.812;-122.286;2023-08-06T09:02:30;18.90;96.20
72883;DHT22;61017;37.812;-122.286;2023-08-06T09:04:05;18.90;96.20
72883;DHT22;61017;37.812;-122.286;2023-08-06T09:05:44;18.90;96.20
72883;DHT22;61017;37.812;-122.286;2023-08-06T09:07:19;18.90;96.20
72883;DHT22;61017;37.812;-122.286;2023-08-06T09:09:15;18.90;96.10
72883;DHT22;61017;37.812;-122.286;2023-08-06T09:10:51;18.90;96.10
72883;DHT22;61017;37.812;-122.286;2023-08-06T09:12:23;18.90;96.10
72883;DHT22;61017;37.812;-122.286;2023-08-06T09:13:56;18.90;96.00
72883;DHT22;61017;37.812;-122.286;2023-08-06T09:15:28;18.90;96.10
72883;DHT22;61017;37.812;-122.286;2023-08-06T09:17:00;18.90;96.00
72883;DHT22;61017;37.812;-122.286;2023-08-06T09:18:32;18.90;96.00
72883;DHT22;61017;37.812;-122.286;2023-08-06T09:20:14;18.90;96.00
72883;DHT22;61017;37.812;-122.286;2023-08-06T09:21:46;18.90;96.10
72883;DHT22;61017;37.812;-122.286;2023-08-06T09:23:18;18.90;96.10
72883;DHT22;61017;37.812;-122.286;2023-08-06T09:24:49;18.90;96.10
72883;DHT22;61017;37.812;-122.286;2023-08-06T09:26:21;18.90;96.10
72883;DHT22;61017;37.812;-122.286;2023-08-06T09:27:52;18.90;96.20
72883;DHT22;61017;37.812;-122.286;2023-08-06T09:29:28;18.90;96.20
72883;DHT22;61017;37.812;-122.286;2023-08-06T09:31:05;18.90;96.20